createdAt,value
2019-04-10T00:00:23.875Z,1008.10
2019-04-10T00:01:23.867Z,1008.13
2019-04-10T00:02:23.876Z,1008.14
2019-04-10T00:03:32.320Z,1008.13
2019-04-10T00:04:23.844Z,1008.13
2019-04-10T00:05:23.834Z,1008.16
2019-04-10T00:06:23.822Z,1008.18
2019-04-10T00:07:23.816Z,1008.11
2019-04-10T00:08:23.812Z,1008.15
2019-04-10T00:09:23.803Z,1008.16
2019-04-10T00:10:23.796Z,1008.15
2019-04-10T00:11:24.837Z,1008.16
2019-04-10T00:12:23.777Z,1008.20
2019-04-10T00:13:24.698Z,1008.17
2019-04-10T00:14:24.050Z,1008.14
2019-04-10T00:15:24.328Z,1008.17
2019-04-10T00:16:24.493Z,1008.21
2019-04-10T00:17:23.737Z,1008.20
2019-04-10T00:18:24.162Z,1008.17
2019-04-10T00:19:23.723Z,1008.18
2019-04-10T00:20:24.588Z,1008.22
2019-04-10T00:21:23.701Z,1008.25
2019-04-10T00:22:24.326Z,1008.25
2019-04-10T00:23:24.758Z,1008.18
2019-04-10T00:24:23.982Z,1008.19
2019-04-10T00:25:24.438Z,1008.22
2019-04-10T00:26:23.802Z,1008.21
2019-04-10T00:27:23.651Z,1008.24
2019-04-10T00:28:23.647Z,1008.23
2019-04-10T00:29:24.545Z,1008.24
2019-04-10T00:30:23.630Z,1008.24
2019-04-10T00:31:24.329Z,1008.24
2019-04-10T00:32:23.805Z,1008.23
2019-04-10T00:33:23.599Z,1008.26
2019-04-10T00:34:23.594Z,1008.23
2019-04-10T00:35:23.672Z,1008.27
2019-04-10T00:36:24.689Z,1008.28
2019-04-10T00:37:27.148Z,1008.24
2019-04-10T00:38:24.088Z,1008.22
2019-04-10T00:39:23.549Z,1008.21
2019-04-10T00:40:23.694Z,1008.28
2019-04-10T00:41:23.987Z,1008.26
2019-04-10T00:42:23.532Z,1008.24
2019-04-10T00:43:24.514Z,1008.29
2019-04-10T00:44:23.809Z,1008.27
2019-04-10T00:45:23.496Z,1008.34
2019-04-10T00:46:24.292Z,1008.25
2019-04-10T00:47:23.480Z,1008.32
2019-04-10T00:48:23.964Z,1008.29
2019-04-10T00:49:23.966Z,1008.31
2019-04-10T00:50:23.472Z,1008.28
2019-04-10T00:51:23.565Z,1008.27
2019-04-10T00:52:24.064Z,1008.32
2019-04-10T00:53:23.430Z,1008.27
2019-04-10T00:54:23.706Z,1008.26
2019-04-10T00:55:23.769Z,1008.29
2019-04-10T00:56:24.285Z,1008.24
2019-04-10T00:57:23.630Z,1008.24
2019-04-10T00:58:23.386Z,1008.24
2019-04-10T00:59:24.142Z,1008.28
2019-04-10T01:00:23.666Z,1008.29
2019-04-10T01:01:23.644Z,1008.27
2019-04-10T01:02:23.355Z,1008.28
2019-04-10T01:03:23.627Z,1008.26
2019-04-10T01:04:24.449Z,1008.26
2019-04-10T01:05:23.325Z,1008.21
2019-04-10T01:06:24.088Z,1008.25
2019-04-10T01:07:33.759Z,1008.29
2019-04-10T01:08:23.306Z,1008.24
2019-04-10T01:09:23.646Z,1008.32
2019-04-10T01:10:23.286Z,1008.22
2019-04-10T01:11:23.276Z,1008.23
2019-04-10T01:12:23.661Z,1008.23
2019-04-10T01:13:23.263Z,1008.24
2019-04-10T01:14:23.453Z,1008.23
2019-04-10T01:15:23.248Z,1008.17
2019-04-10T01:16:23.250Z,1008.18
2019-04-10T01:17:24.060Z,1008.20
2019-04-10T01:18:23.433Z,1008.21
2019-04-10T01:19:23.842Z,1008.23
2019-04-10T01:20:23.810Z,1008.20
2019-04-10T01:21:23.212Z,1008.18
2019-04-10T01:22:24.040Z,1008.21
2019-04-10T01:23:23.180Z,1008.19
2019-04-10T01:24:23.755Z,1008.20
2019-04-10T01:25:24.133Z,1008.14
2019-04-10T01:26:23.400Z,1008.16
2019-04-10T01:27:23.639Z,1008.15
2019-04-10T01:28:23.128Z,1008.15
2019-04-10T01:29:23.120Z,1008.16
2019-04-10T01:30:24.292Z,1008.17
2019-04-10T01:31:23.304Z,1008.17
2019-04-10T01:32:23.776Z,1008.15
2019-04-10T01:33:23.095Z,1008.13
2019-04-10T01:34:23.316Z,1008.16
2019-04-10T01:35:23.074Z,1008.16
2019-04-10T01:36:23.062Z,1008.12
2019-04-10T01:37:23.051Z,1008.17
2019-04-10T01:38:23.039Z,1008.18
2019-04-10T01:39:23.032Z,1008.16
2019-04-10T01:40:23.372Z,1008.16
2019-04-10T01:41:23.795Z,1008.18
2019-04-10T01:42:23.005Z,1008.12
2019-04-10T01:43:22.997Z,1008.14
2019-04-10T01:44:22.993Z,1008.14
2019-04-10T01:45:22.982Z,1008.15
2019-04-10T01:46:22.977Z,1008.14
2019-04-10T01:47:23.434Z,1008.14
2019-04-10T01:48:23.827Z,1008.16
2019-04-10T01:49:23.847Z,1008.16
2019-04-10T01:50:22.939Z,1008.13
2019-04-10T01:51:23.410Z,1008.16
2019-04-10T01:52:22.924Z,1008.16
2019-04-10T01:53:23.800Z,1008.13
2019-04-10T01:54:22.904Z,1008.19
2019-04-10T01:55:25.814Z,1008.18
2019-04-10T01:56:31.147Z,1008.16
2019-04-10T01:57:22.875Z,1008.15
2019-04-10T01:58:23.203Z,1008.16
2019-04-10T01:59:23.598Z,1008.12
2019-04-10T02:00:23.698Z,1008.14
2019-04-10T02:01:22.837Z,1008.15
2019-04-10T02:02:23.184Z,1008.18
2019-04-10T02:03:22.833Z,1008.15
2019-04-10T02:04:22.887Z,1008.13
2019-04-10T02:05:22.941Z,1008.13
2019-04-10T02:06:22.800Z,1008.14
2019-04-10T02:07:23.127Z,1008.17
2019-04-10T02:08:23.639Z,1008.15
2019-04-10T02:09:23.444Z,1008.17
2019-04-10T02:10:23.778Z,1008.16
2019-04-10T02:11:23.875Z,1008.18
2019-04-10T02:12:22.885Z,1008.14
2019-04-10T02:13:23.364Z,1008.17
2019-04-10T02:14:22.722Z,1008.12
2019-04-10T02:15:22.816Z,1008.16
2019-04-10T02:16:22.910Z,1008.13
2019-04-10T02:17:22.701Z,1008.16
2019-04-10T02:18:23.486Z,1008.17
2019-04-10T02:19:22.685Z,1008.16
2019-04-10T02:20:22.980Z,1008.22
2019-04-10T02:21:23.435Z,1008.18
2019-04-10T02:22:22.656Z,1008.19
2019-04-10T02:23:22.659Z,1008.19
2019-04-10T02:24:22.966Z,1008.23
2019-04-10T02:25:22.625Z,1008.22
2019-04-10T02:26:22.618Z,1008.22
2019-04-10T02:27:22.607Z,1008.14
2019-04-10T02:28:22.785Z,1008.23
2019-04-10T02:29:22.598Z,1008.21
2019-04-10T02:30:24.032Z,1008.21
2019-04-10T02:31:24.121Z,1008.18
2019-04-10T02:32:24.111Z,1008.20
2019-04-10T02:33:23.225Z,1008.22
2019-04-10T02:34:23.236Z,1008.22
2019-04-10T02:35:24.484Z,1008.22
2019-04-10T02:36:23.531Z,1008.22
2019-04-10T02:37:22.994Z,1008.18
2019-04-10T02:38:38.683Z,1008.25
2019-04-10T02:39:29.822Z,1008.25
2019-04-10T02:40:23.570Z,1008.25
2019-04-10T02:41:22.495Z,1008.25
2019-04-10T02:42:22.662Z,1008.25
2019-04-10T02:43:23.308Z,1008.25
2019-04-10T02:44:23.033Z,1008.25
2019-04-10T02:45:23.786Z,1008.26
2019-04-10T02:46:22.442Z,1008.26
2019-04-10T02:47:23.040Z,1008.27
2019-04-10T02:48:23.464Z,1008.25
2019-04-10T02:49:22.618Z,1008.29
2019-04-10T02:50:22.632Z,1008.27
2019-04-10T02:51:23.611Z,1008.27
2019-04-10T02:52:22.768Z,1008.29
2019-04-10T02:53:23.342Z,1008.27
2019-04-10T02:54:22.365Z,1008.27
2019-04-10T02:55:22.925Z,1008.32
2019-04-10T02:56:23.733Z,1008.29
2019-04-10T02:57:22.335Z,1008.27
2019-04-10T02:58:22.364Z,1008.30
2019-04-10T02:59:23.354Z,1008.36
2019-04-10T03:00:22.906Z,1008.30
2019-04-10T03:01:23.475Z,1008.35
2019-04-10T03:02:22.286Z,1008.33
2019-04-10T03:03:22.472Z,1008.34
2019-04-10T03:04:22.271Z,1008.36
2019-04-10T03:05:24.859Z,1008.35
2019-04-10T03:06:22.858Z,1008.30
2019-04-10T03:07:23.873Z,1008.32
2019-04-10T03:08:38.230Z,1008.36
2019-04-10T03:09:37.014Z,1008.33
2019-04-10T03:10:31.618Z,1008.34
2019-04-10T03:11:23.759Z,1008.34
2019-04-10T03:12:23.672Z,1008.37
2019-04-10T03:13:23.793Z,1008.38
2019-04-10T03:14:22.175Z,1008.34
2019-04-10T03:15:23.204Z,1008.43
2019-04-10T03:16:22.154Z,1008.38
2019-04-10T03:17:22.142Z,1008.39
2019-04-10T03:18:22.981Z,1008.41
2019-04-10T03:19:22.319Z,1008.40
2019-04-10T03:20:22.454Z,1008.40
2019-04-10T03:21:22.832Z,1008.41
2019-04-10T03:22:22.875Z,1008.42
2019-04-10T03:23:23.007Z,1008.45
2019-04-10T03:24:23.174Z,1008.42
2019-04-10T03:25:22.068Z,1008.39
2019-04-10T03:26:22.068Z,1008.48
2019-04-10T03:27:22.626Z,1008.50
2019-04-10T03:28:22.963Z,1008.43
2019-04-10T03:29:22.041Z,1008.44
2019-04-10T03:30:23.380Z,1008.42
2019-04-10T03:31:23.005Z,1008.41
2019-04-10T03:32:23.642Z,1008.47
2019-04-10T03:33:26.724Z,1008.48
2019-04-10T03:34:22.922Z,1008.45
2019-04-10T03:35:22.820Z,1008.46
2019-04-10T03:36:21.964Z,1008.46
2019-04-10T03:37:22.339Z,1008.47
2019-04-10T03:38:21.947Z,1008.51
2019-04-10T03:39:21.936Z,1008.52
2019-04-10T03:40:21.925Z,1008.47
2019-04-10T03:41:22.013Z,1008.55
2019-04-10T03:42:21.903Z,1008.56
2019-04-10T03:43:21.893Z,1008.55
2019-04-10T03:44:22.854Z,1008.56
2019-04-10T03:45:22.393Z,1008.64
2019-04-10T03:46:21.866Z,1008.57
2019-04-10T03:47:22.911Z,1008.56
2019-04-10T03:48:22.973Z,1008.59
2019-04-10T03:49:22.139Z,1008.55
2019-04-10T03:50:21.827Z,1008.57
2019-04-10T03:51:22.814Z,1008.54
2019-04-10T03:52:21.803Z,1008.50
2019-04-10T03:53:22.152Z,1008.54
2019-04-10T03:54:22.812Z,1008.58
2019-04-10T03:55:22.936Z,1008.53
2019-04-10T03:56:21.774Z,1008.59
2019-04-10T03:57:22.644Z,1008.57
2019-04-10T03:58:21.751Z,1008.54
2019-04-10T03:59:22.389Z,1008.57
2019-04-10T04:00:22.448Z,1008.53
2019-04-10T04:01:22.891Z,1008.57
2019-04-10T04:02:21.899Z,1008.59
2019-04-10T04:03:21.693Z,1008.60
2019-04-10T04:04:21.720Z,1008.60
2019-04-10T04:05:22.423Z,1008.64
2019-04-10T04:06:21.783Z,1008.61
2019-04-10T04:07:24.281Z,1008.59
2019-04-10T04:08:21.674Z,1008.57
2019-04-10T04:09:21.756Z,1008.59
2019-04-10T04:10:21.628Z,1008.56
2019-04-10T04:11:21.846Z,1008.60
2019-04-10T04:12:22.337Z,1008.56
2019-04-10T04:13:21.731Z,1008.64
2019-04-10T04:14:22.058Z,1008.61
2019-04-10T04:15:21.954Z,1008.61
2019-04-10T04:16:22.615Z,1008.57
2019-04-10T04:17:22.205Z,1008.66
2019-04-10T04:18:21.546Z,1008.62
2019-04-10T04:19:22.054Z,1008.69
2019-04-10T04:20:21.521Z,1008.65
2019-04-10T04:21:21.712Z,1008.67
2019-04-10T04:22:21.504Z,1008.64
2019-04-10T04:23:21.622Z,1008.68
2019-04-10T04:24:23.598Z,1008.73
2019-04-10T04:25:21.906Z,1008.73
2019-04-10T04:26:21.461Z,1008.68
2019-04-10T04:27:21.680Z,1008.72
2019-04-10T04:28:21.453Z,1008.73
2019-04-10T04:29:22.587Z,1008.79
2019-04-10T04:30:22.261Z,1008.73
2019-04-10T04:31:21.413Z,1008.77
2019-04-10T04:32:21.756Z,1008.82
2019-04-10T04:33:21.386Z,1008.76
2019-04-10T04:34:21.380Z,1008.80
2019-04-10T04:35:22.249Z,1008.79
2019-04-10T04:36:21.409Z,1008.81
2019-04-10T04:37:21.354Z,1008.89
2019-04-10T04:38:21.338Z,1008.88
2019-04-10T04:39:26.391Z,1008.86
2019-04-10T04:40:21.724Z,1008.87
2019-04-10T04:41:21.312Z,1008.86
2019-04-10T04:42:22.293Z,1008.86
2019-04-10T04:43:21.948Z,1008.86
2019-04-10T04:44:22.209Z,1008.89
2019-04-10T04:45:21.574Z,1008.90
2019-04-10T04:46:21.252Z,1008.92
2019-04-10T04:47:22.275Z,1008.95
2019-04-10T04:48:21.958Z,1008.88
2019-04-10T04:49:21.225Z,1008.98
2019-04-10T04:50:21.218Z,1008.95
2019-04-10T04:51:21.961Z,1008.98
2019-04-10T04:52:21.194Z,1008.91
2019-04-10T04:53:21.183Z,1008.94
2019-04-10T04:54:21.366Z,1008.94
2019-04-10T04:55:21.841Z,1008.98
2019-04-10T04:56:21.986Z,1008.98
2019-04-10T04:57:21.139Z,1009.03
2019-04-10T04:58:22.211Z,1008.99
2019-04-10T04:59:21.118Z,1008.96
2019-04-10T05:00:21.530Z,1009.03
2019-04-10T05:01:21.129Z,1009.04
2019-04-10T05:02:21.948Z,1009.01
2019-04-10T05:03:21.087Z,1009.10
2019-04-10T05:04:21.064Z,1009.14
2019-04-10T05:05:21.054Z,1009.14
2019-04-10T05:06:22.179Z,1009.18
2019-04-10T05:07:21.042Z,1009.17
2019-04-10T05:08:21.811Z,1009.16
2019-04-10T05:09:29.769Z,1009.21
2019-04-10T05:10:21.005Z,1009.18
2019-04-10T05:11:20.995Z,1009.20
2019-04-10T05:12:20.991Z,1009.25
2019-04-10T05:13:21.950Z,1009.23
2019-04-10T05:14:21.686Z,1009.24
2019-04-10T05:15:20.954Z,1009.30
2019-04-10T05:16:20.942Z,1009.25
2019-04-10T05:17:22.069Z,1009.29
2019-04-10T05:18:21.238Z,1009.33
2019-04-10T05:19:21.131Z,1009.34
2019-04-10T05:20:20.903Z,1009.38
2019-04-10T05:21:21.314Z,1009.38
2019-04-10T05:22:20.889Z,1009.47
2019-04-10T05:23:20.873Z,1009.53
2019-04-10T05:24:21.927Z,1009.46
2019-04-10T05:25:21.090Z,1009.51
2019-04-10T05:26:20.877Z,1009.66
2019-04-10T05:27:20.836Z,1009.63
2019-04-10T05:28:20.818Z,1009.69
2019-04-10T05:29:21.654Z,1009.68
2019-04-10T05:30:20.801Z,1009.75
2019-04-10T05:31:21.471Z,1009.78
2019-04-10T05:32:21.493Z,1009.80
2019-04-10T05:33:20.769Z,1009.82
2019-04-10T05:34:21.891Z,1009.86
2019-04-10T05:35:20.751Z,1009.88
2019-04-10T05:36:21.590Z,1009.91
2019-04-10T05:37:21.277Z,1010.00
2019-04-10T05:38:20.884Z,1010.02
2019-04-10T05:39:20.706Z,1009.99
2019-04-10T05:40:20.737Z,1010.05
2019-04-10T05:41:21.706Z,1010.04
2019-04-10T05:42:20.716Z,1010.09
2019-04-10T05:43:20.677Z,1010.11
2019-04-10T05:44:20.668Z,1010.18
2019-04-10T05:45:21.237Z,1010.21
2019-04-10T05:46:21.599Z,1010.19
2019-04-10T05:47:21.434Z,1010.19
2019-04-10T05:48:22.438Z,1010.18
2019-04-10T05:49:20.762Z,1010.22
2019-04-10T05:50:21.561Z,1010.34
2019-04-10T05:51:21.304Z,1010.36
2019-04-10T05:52:20.606Z,1010.37
2019-04-10T05:53:20.600Z,1010.38
2019-04-10T05:54:20.590Z,1010.38
2019-04-10T05:55:20.583Z,1010.43
2019-04-10T05:56:20.742Z,1010.54
2019-04-10T05:57:20.567Z,1010.45
2019-04-10T05:58:21.632Z,1010.52
2019-04-10T05:59:21.726Z,1010.49
2019-04-10T06:00:20.865Z,1010.57
2019-04-10T06:01:31.425Z,1010.56
2019-04-10T06:02:20.535Z,1010.62
2019-04-10T06:03:20.741Z,1010.60
2019-04-10T06:04:21.026Z,1010.56
2019-04-10T06:05:20.522Z,1010.66
2019-04-10T06:06:20.541Z,1010.68
2019-04-10T06:07:21.126Z,1010.70
2019-04-10T06:08:21.509Z,1010.75
2019-04-10T06:09:20.628Z,1010.81
2019-04-10T06:10:21.593Z,1010.79
2019-04-10T06:11:20.628Z,1010.77
2019-04-10T06:12:20.507Z,1010.82
2019-04-10T06:13:20.480Z,1010.77
2019-04-10T06:14:20.469Z,1010.78
2019-04-10T06:15:21.103Z,1010.82
2019-04-10T06:16:20.552Z,1010.82
2019-04-10T06:17:20.684Z,1010.91
2019-04-10T06:18:20.781Z,1010.92
2019-04-10T06:19:20.453Z,1010.97
2019-04-10T06:20:20.938Z,1010.98
2019-04-10T06:21:21.041Z,1011.01
2019-04-10T06:22:20.798Z,1010.98
2019-04-10T06:23:20.436Z,1011.03
2019-04-10T06:24:20.487Z,1010.98
2019-04-10T06:25:23.585Z,1010.96
2019-04-10T06:26:21.751Z,1010.97
2019-04-10T06:27:20.582Z,1010.97
2019-04-10T06:28:21.322Z,1011.00
2019-04-10T06:29:21.117Z,1011.06
2019-04-10T06:30:20.583Z,1011.06
2019-04-10T06:31:20.728Z,1011.09
2019-04-10T06:32:21.327Z,1011.07
2019-04-10T06:33:20.400Z,1011.07
2019-04-10T06:34:20.580Z,1011.05
2019-04-10T06:35:20.401Z,1011.10
2019-04-10T06:36:21.470Z,1011.15
2019-04-10T06:37:20.401Z,1011.13
2019-04-10T06:38:21.009Z,1011.12
2019-04-10T06:39:20.560Z,1011.17
2019-04-10T06:40:23.838Z,1011.22
2019-04-10T06:41:20.385Z,1011.30
2019-04-10T06:42:20.469Z,1011.22
2019-04-10T06:43:20.992Z,1011.20
2019-04-10T06:44:21.658Z,1011.12
2019-04-10T06:45:20.379Z,1011.16
2019-04-10T06:46:20.375Z,1011.23
2019-04-10T06:47:20.381Z,1011.23
2019-04-10T06:48:20.377Z,1011.26
2019-04-10T06:49:20.663Z,1011.28
2019-04-10T06:50:21.079Z,1011.27
2019-04-10T06:51:21.602Z,1011.22
2019-04-10T06:52:20.700Z,1011.28
2019-04-10T06:53:20.581Z,1011.30
2019-04-10T06:54:20.560Z,1011.32
2019-04-10T06:55:21.529Z,1011.27
2019-04-10T06:56:20.881Z,1011.31
2019-04-10T06:57:20.830Z,1011.36
2019-04-10T06:58:20.366Z,1011.32
2019-04-10T06:59:21.240Z,1011.37
2019-04-10T07:00:21.388Z,1011.29
2019-04-10T07:01:21.495Z,1011.38
2019-04-10T07:02:27.089Z,1011.39
2019-04-10T07:03:21.135Z,1011.36
2019-04-10T07:04:23.843Z,1011.39
2019-04-10T07:05:20.364Z,1011.51
2019-04-10T07:06:22.334Z,1011.31
2019-04-10T07:07:23.789Z,1011.34
2019-04-10T07:08:23.672Z,1010.64
2019-04-10T07:09:21.361Z,1010.60
2019-04-10T07:10:28.609Z,1010.59
2019-04-10T07:11:22.108Z,1010.63
2019-04-10T07:12:22.441Z,1010.63
2019-04-10T07:13:20.361Z,1010.64
2019-04-10T07:14:20.522Z,1010.63
2019-04-10T07:15:23.652Z,1010.63
2019-04-10T07:16:20.366Z,1010.68
2019-04-10T07:17:20.360Z,1010.65
2019-04-10T07:18:21.756Z,1010.70
2019-04-10T07:19:20.356Z,1010.69
2019-04-10T07:20:21.265Z,1010.71
2019-04-10T07:21:20.361Z,1010.74
2019-04-10T07:22:20.748Z,1010.73
2019-04-10T07:23:26.787Z,1010.76
2019-04-10T07:24:20.808Z,1010.76
2019-04-10T07:25:20.366Z,1010.77
2019-04-10T07:26:30.969Z,1010.82
2019-04-10T07:27:21.734Z,1010.81
2019-04-10T07:28:21.452Z,1010.81
2019-04-10T07:29:26.183Z,1010.83
2019-04-10T07:30:24.153Z,1010.84
2019-04-10T07:31:21.380Z,1010.87
2019-04-10T07:32:21.507Z,1010.93
2019-04-10T07:33:21.075Z,1010.94
2019-04-10T07:34:22.028Z,1010.95
2019-04-10T07:35:21.878Z,1010.94
2019-04-10T07:36:20.419Z,1011.01
2019-04-10T07:37:23.773Z,1011.04
2019-04-10T07:38:21.361Z,1011.02
2019-04-10T07:39:21.416Z,1011.09
2019-04-10T07:40:20.645Z,1011.09
2019-04-10T07:41:24.027Z,1011.11
2019-04-10T07:42:30.358Z,1011.20
2019-04-10T07:43:24.499Z,1011.11
2019-04-10T07:44:20.391Z,1011.26
2019-04-10T07:45:20.392Z,1011.12
2019-04-10T07:46:20.398Z,1011.16
2019-04-10T07:47:21.016Z,1011.18
2019-04-10T07:48:20.545Z,1011.28
2019-04-10T07:49:21.175Z,1011.18
2019-04-10T07:50:20.609Z,1011.16
2019-04-10T07:51:21.131Z,1011.22
2019-04-10T07:52:22.307Z,1011.26
2019-04-10T07:53:20.420Z,1011.28
2019-04-10T07:54:21.301Z,1011.26
2019-04-10T07:55:21.101Z,1011.28
2019-04-10T07:56:20.919Z,1011.31
2019-04-10T07:57:20.424Z,1011.27
2019-04-10T07:58:21.437Z,1011.31
2019-04-10T07:59:20.609Z,1011.34
2019-04-10T08:00:20.438Z,1011.32
2019-04-10T08:01:20.443Z,1011.46
2019-04-10T08:02:21.169Z,1011.40
2019-04-10T08:03:20.850Z,1011.41
2019-04-10T08:04:20.583Z,1011.50
2019-04-10T08:05:20.961Z,1011.50
2019-04-10T08:06:20.460Z,1011.47
2019-04-10T08:07:29.453Z,1011.47
2019-04-10T08:08:21.434Z,1011.46
2019-04-10T08:09:20.960Z,1011.50
2019-04-10T08:10:20.475Z,1011.50
2019-04-10T08:11:20.476Z,1011.50
2019-04-10T08:12:21.182Z,1011.51
2019-04-10T08:13:20.490Z,1011.44
2019-04-10T08:14:21.680Z,1011.44
2019-04-10T08:15:20.987Z,1011.55
2019-04-10T08:16:21.068Z,1011.56
2019-04-10T08:17:20.504Z,1011.55
2019-04-10T08:18:21.122Z,1011.57
2019-04-10T08:19:20.753Z,1011.56
2019-04-10T08:20:20.525Z,1011.56
2019-04-10T08:21:20.529Z,1011.58
2019-04-10T08:22:20.530Z,1011.67
2019-04-10T08:23:21.742Z,1011.64
2019-04-10T08:24:20.545Z,1011.59
2019-04-10T08:25:20.603Z,1011.62
2019-04-10T08:26:21.381Z,1011.62
2019-04-10T08:27:21.352Z,1011.65
2019-04-10T08:28:20.559Z,1011.71
2019-04-10T08:29:21.737Z,1011.61
2019-04-10T08:30:20.573Z,1011.64
2019-04-10T08:31:22.217Z,1011.62
2019-04-10T08:32:21.597Z,1011.61
2019-04-10T08:33:21.730Z,1011.63
2019-04-10T08:34:21.578Z,1011.65
2019-04-10T08:35:20.948Z,1011.68
2019-04-10T08:36:21.547Z,1011.73
2019-04-10T08:37:20.757Z,1011.77
2019-04-10T08:38:21.719Z,1011.72
2019-04-10T08:39:32.056Z,1011.69
2019-04-10T08:40:21.147Z,1011.69
2019-04-10T08:41:21.299Z,1011.69
2019-04-10T08:42:20.644Z,1011.73
2019-04-10T08:43:20.653Z,1011.77
2019-04-10T08:44:20.676Z,1011.82
2019-04-10T08:45:21.058Z,1011.85
2019-04-10T08:46:21.814Z,1011.80
2019-04-10T08:47:20.685Z,1011.82
2019-04-10T08:48:21.881Z,1011.83
2019-04-10T08:49:21.391Z,1011.92
2019-04-10T08:50:21.751Z,1011.81
2019-04-10T08:51:21.442Z,1011.85
2019-04-10T08:52:20.717Z,1011.82
2019-04-10T08:53:20.721Z,1011.82
2019-04-10T08:54:20.726Z,1011.88
2019-04-10T08:55:21.819Z,1011.92
2019-04-10T08:56:20.745Z,1011.93
2019-04-10T08:57:21.488Z,1011.98
2019-04-10T08:58:20.907Z,1011.92
2019-04-10T08:59:21.414Z,1011.95
2019-04-10T09:00:20.769Z,1011.90
2019-04-10T09:01:20.948Z,1011.94
2019-04-10T09:02:20.787Z,1011.95
2019-04-10T09:03:20.791Z,1012.04
2019-04-10T09:04:20.809Z,1012.02
2019-04-10T09:05:21.694Z,1011.96
2019-04-10T09:06:20.816Z,1011.95
2019-04-10T09:07:20.842Z,1012.03
2019-04-10T09:08:21.113Z,1012.06
2019-04-10T09:09:21.534Z,1012.14
2019-04-10T09:10:20.848Z,1012.07
2019-04-10T09:11:26.216Z,1012.13
2019-04-10T09:12:21.903Z,1012.04
2019-04-10T09:13:20.883Z,1012.07
2019-04-10T09:14:21.157Z,1012.05
2019-04-10T09:15:21.433Z,1012.03
2019-04-10T09:16:20.897Z,1012.11
2019-04-10T09:17:20.906Z,1012.12
2019-04-10T09:18:21.108Z,1012.07
2019-04-10T09:19:20.924Z,1012.13
2019-04-10T09:20:20.930Z,1012.07
2019-04-10T09:21:21.615Z,1012.06
2019-04-10T09:22:20.945Z,1012.08
2019-04-10T09:23:30.774Z,1012.16
2019-04-10T09:24:21.644Z,1012.18
2019-04-10T09:25:20.974Z,1012.22
2019-04-10T09:26:20.980Z,1012.17
2019-04-10T09:27:21.317Z,1012.21
2019-04-10T09:28:21.006Z,1012.24
2019-04-10T09:29:23.035Z,1012.30
2019-04-10T09:30:21.026Z,1012.24
2019-04-10T09:31:21.773Z,1012.26
2019-04-10T09:32:22.195Z,1012.30
2019-04-10T09:33:24.298Z,1012.33
2019-04-10T09:34:21.061Z,1012.37
2019-04-10T09:35:21.072Z,1012.39
2019-04-10T09:36:21.488Z,1012.37
2019-04-10T09:37:22.054Z,1012.44
2019-04-10T09:38:21.108Z,1012.34
2019-04-10T09:39:21.278Z,1012.40
2019-04-10T09:40:22.354Z,1012.40
2019-04-10T09:41:21.613Z,1012.50
2019-04-10T09:42:21.561Z,1012.62
2019-04-10T09:43:21.157Z,1012.54
2019-04-10T09:44:21.163Z,1012.52
2019-04-10T09:45:22.001Z,1012.54
2019-04-10T09:46:21.376Z,1012.49
2019-04-10T09:47:21.194Z,1012.43
2019-04-10T09:48:22.206Z,1012.44
2019-04-10T09:49:31.832Z,1012.43
2019-04-10T09:50:21.421Z,1012.37
2019-04-10T09:51:21.503Z,1012.39
2019-04-10T09:52:21.745Z,1012.36
2019-04-10T09:53:21.251Z,1012.24
2019-04-10T09:54:21.794Z,1011.89
2019-04-10T09:55:22.239Z,1011.78
2019-04-10T09:56:21.415Z,1011.85
2019-04-10T09:57:22.399Z,1011.83
2019-04-10T09:58:21.883Z,1011.81
2019-04-10T09:59:31.239Z,1011.81
2019-04-10T10:00:21.425Z,1011.80
2019-04-10T10:01:22.064Z,1011.87
2019-04-10T10:02:21.341Z,1011.80
2019-04-10T10:03:21.351Z,1011.79
2019-04-10T10:04:21.599Z,1011.77
2019-04-10T10:05:22.342Z,1011.79
2019-04-10T10:06:27.057Z,1011.69
2019-04-10T10:07:21.387Z,1011.72
2019-04-10T10:08:22.546Z,1011.68
2019-04-10T10:09:21.719Z,1011.68
2019-04-10T10:10:22.618Z,1011.67
2019-04-10T10:11:22.204Z,1011.57
2019-04-10T10:12:21.440Z,1011.57
2019-04-10T10:13:21.464Z,1011.62
2019-04-10T10:14:21.463Z,1011.63
2019-04-10T10:15:21.474Z,1011.72
2019-04-10T10:16:21.494Z,1011.61
2019-04-10T10:17:22.424Z,1011.61
2019-04-10T10:18:21.494Z,1011.59
2019-04-10T10:19:21.838Z,1011.48
2019-04-10T10:20:21.792Z,1011.48
2019-04-10T10:21:21.529Z,1011.42
2019-04-10T10:22:21.538Z,1011.57
2019-04-10T10:23:22.030Z,1011.58
2019-04-10T10:24:22.454Z,1011.58
2019-04-10T10:25:21.653Z,1011.50
2019-04-10T10:26:21.836Z,1011.53
2019-04-10T10:27:22.159Z,1011.55
2019-04-10T10:28:22.792Z,1011.45
2019-04-10T10:29:21.833Z,1011.39
2019-04-10T10:30:21.607Z,1011.56
2019-04-10T10:31:22.171Z,1011.42
2019-04-10T10:32:21.625Z,1011.42
2019-04-10T10:33:21.690Z,1011.42
2019-04-10T10:34:22.593Z,1011.48
2019-04-10T10:35:21.644Z,1011.56
2019-04-10T10:36:22.188Z,1011.57
2019-04-10T10:37:22.159Z,1011.64
2019-04-10T10:38:21.660Z,1011.48
2019-04-10T10:39:21.669Z,1011.50
2019-04-10T10:40:21.680Z,1011.42
2019-04-10T10:41:22.236Z,1011.47
2019-04-10T10:42:21.697Z,1011.58
2019-04-10T10:43:22.554Z,1011.48
2019-04-10T10:44:21.947Z,1011.48
2019-04-10T10:45:22.778Z,1011.38
2019-04-10T10:46:21.726Z,1011.42
2019-04-10T10:47:22.261Z,1011.49
2019-04-10T10:48:21.940Z,1011.40
2019-04-10T10:49:21.744Z,1011.41
2019-04-10T10:50:22.244Z,1011.42
2019-04-10T10:51:22.579Z,1011.48
2019-04-10T10:52:21.768Z,1011.52
2019-04-10T10:53:21.999Z,1011.42
2019-04-10T10:54:23.021Z,1011.38
2019-04-10T10:55:21.790Z,1011.45
2019-04-10T10:56:22.382Z,1011.48
2019-04-10T10:57:22.763Z,1011.55
2019-04-10T10:58:21.898Z,1011.55
2019-04-10T10:59:21.879Z,1011.52
2019-04-10T11:00:22.999Z,1011.54
2019-04-10T11:01:22.110Z,1011.44
2019-04-10T11:02:21.828Z,1011.42
2019-04-10T11:03:22.454Z,1011.44
2019-04-10T11:04:21.848Z,1011.38
2019-04-10T11:05:21.853Z,1011.33
2019-04-10T11:06:22.676Z,1011.36
2019-04-10T11:07:22.744Z,1011.30
2019-04-10T11:08:22.065Z,1011.50
2019-04-10T11:09:22.052Z,1011.51
2019-04-10T11:10:24.087Z,1011.43
2019-04-10T11:11:22.604Z,1011.40
2019-04-10T11:12:22.037Z,1011.41
2019-04-10T11:13:22.539Z,1011.35
2019-04-10T11:14:21.914Z,1011.37
2019-04-10T11:15:21.925Z,1011.52
2019-04-10T11:16:23.199Z,1011.51
2019-04-10T11:17:22.236Z,1011.51
2019-04-10T11:18:22.218Z,1011.46
2019-04-10T11:19:21.947Z,1011.48
2019-04-10T11:20:21.952Z,1011.43
2019-04-10T11:21:22.845Z,1011.32
2019-04-10T11:22:24.000Z,1011.35
2019-04-10T11:23:22.233Z,1011.38
2019-04-10T11:24:22.831Z,1011.38
2019-04-10T11:25:22.191Z,1011.26
2019-04-10T11:26:24.088Z,1011.21
2019-04-10T11:27:22.917Z,1011.21
2019-04-10T11:28:24.012Z,1011.14
2019-04-10T11:29:22.186Z,1011.17
2019-04-10T11:30:22.496Z,1011.07
2019-04-10T11:31:23.803Z,1010.99
2019-04-10T11:32:22.183Z,1010.93
2019-04-10T11:33:22.369Z,1010.95
2019-04-10T11:34:22.623Z,1010.95
2019-04-10T11:35:24.140Z,1011.02
2019-04-10T11:36:22.040Z,1010.93
2019-04-10T11:37:31.756Z,1010.92
2019-04-10T11:38:22.049Z,1010.94
2019-04-10T11:39:26.101Z,1010.95
2019-04-10T11:40:23.534Z,1010.88
2019-04-10T11:41:23.401Z,1010.86
2019-04-10T11:42:22.633Z,1010.99
2019-04-10T11:43:24.392Z,1010.99
2019-04-10T11:44:22.057Z,1010.95
2019-04-10T11:45:23.015Z,1010.90
2019-04-10T11:46:22.715Z,1010.84
2019-04-10T11:47:23.621Z,1011.03
2019-04-10T11:48:22.979Z,1011.01
2019-04-10T11:49:23.053Z,1011.01
2019-04-10T11:50:24.701Z,1010.91
2019-04-10T11:51:23.522Z,1010.95
2019-04-10T11:52:32.177Z,1010.91
2019-04-10T11:53:23.855Z,1010.93
2019-04-10T11:54:26.587Z,1010.94
2019-04-10T11:55:27.039Z,1010.91
2019-04-10T11:56:23.617Z,1010.92
2019-04-10T11:57:22.870Z,1010.95
2019-04-10T11:58:24.375Z,1010.88
2019-04-10T11:59:24.182Z,1010.86
2019-04-10T12:00:23.690Z,1010.86
2019-04-10T12:01:24.556Z,1010.93
2019-04-10T12:02:25.020Z,1010.90
2019-04-10T12:03:22.668Z,1011.07
2019-04-10T12:04:23.253Z,1010.96
2019-04-10T12:05:22.629Z,1010.94